WETTERDATEN

GESTERN
Time Temp. Taup. r.Fe. Druck 1h Prec. 24h Prec.
00:04 8.9 6 82 1016.6 0.0000 0.0000
00:15 8.7 6 83 1016.6 0.0000 0.0000
00:25 8.5 6 84 1016.7 0.0000 0.0000
00:35 8.4 5.9 84 1016.6 0.0000 0.0000
00:45 8.3 5.9 85 1016.6 0.0000 0.0000
00:55 8.1 5.7 85 1016.5 0.0000 0.0000
01:05 8 5.8 86 1016.5 0.0000 0.0000
01:08 8 5.8 86 1015.9 0.0000 0.0000
01:18 7.9 5.7 86 1016 0.0000 0.0000
01:28 7.8 5.6 86 1016.5 0.0000 0.0000
01:38 7.8 5.8 87 1016.4 0.0000 0.0000
01:49 7.6 5.6 87 1016.4 0.0000 0.0000
01:58 7.6 5.6 87 1016.3 0.0000 0.0000
02:08 7.5 5.5 87 1016.3 0.0000 0.0000
02:18 7.4 5.4 87 1016.4 0.0000 0.0000
02:29 7.3 5.4 88 1016.3 0.0000 0.0000
02:39 7.2 5.3 88 1016 0.0000 0.0000
02:48 7.2 5.3 88 1015.9 0.0000 0.0000
02:59 7.1 5.4 89 1015.8 0.0000 0.0000
03:09 7.1 5.4 89 1015.7 0.0000 0.0000
03:19 7.1 5.2 88 1015.2 0.0000 0.0000
03:29 6.9 5.2 89 1015.6 0.0000 0.0000
03:39 6.8 5.1 89 1015.1 0.0000 0.0000
03:49 6.7 5 89 1015.5 0.0000 0.0000
03:58 6.6 4.9 89 1015.4 0.0000 0.0000
04:09 6.6 5.1 90 1015.2 0.0000 0.0000
04:18 6.5 5 90 1014.8 0.0000 0.0000
04:28 6.5 5 90 1015.2 0.0000 0.0000
04:49 6.3 4.9 91 1014.9 0.0000 0.0000
05:03 6.5 5.1 91 1014.6 0.0000 0.0000
05:14 6.5 5.1 91 1014.2 0.0000 0.0000
05:24 6.6 5.2 91 1014.8 0.0000 0.0000
05:34 6.5 5 90 1014.6 0.0000 0.0000
05:43 6.4 5 91 1014.6 0.0000 0.0000
05:54 6.3 4.9 91 1014.6 0.0000 0.0000
06:04 6.4 5.2 92 1013.9 0.0000 0.0000
06:14 6.4 5.2 92 1014.4 0.0000 0.0000
06:25 6.4 5.2 92 1014.3 0.0000 0.0000
06:35 6.5 5.3 92 1014.3 0.0000 0.0000
06:44 6.5 5.3 92 1014.3 0.0000 0.0000
06:54 6.6 5.4 92 1014.3 0.0000 0.0000
07:05 6.5 5.3 92 1013.7 0.0000 0.0000
07:15 6.5 5.3 92 1014.2 0.0000 0.0000
07:35 6.9 5.7 92 1014.6 0.0000 0.0000
07:50 7.4 6.2 92 1014 0.0000 0.0000
08:00 7.7 6.5 92 1014.7 0.0000 0.0000
08:10 8 6.8 92 1014.6 0.0000 0.0000
08:20 8.4 7 91 1014.6 0.0000 0.0000
08:30 8.7 7.3 91 1014.4 0.0000 0.0000
08:40 8.9 7.5 91 1014.3 0.0000 0.0000
08:51 9.3 8.1 92 1014.4 0.0000 0.0000
09:00 9.7 8.3 91 1014.8 0.0000 0.0000
09:10 10.2 8.6 90 1013.9 0.0000 0.0000
09:21 10.6 8.9 89 1014.4 0.0000 0.0000
09:31 10.9 8.8 87 1014.3 0.0000 0.0000
09:40 11.2 8.9 86 1014.3 0.0000 0.0000
09:53 11.8 9 83 1014.3 0.0000 0.0000
10:03 12.2 9.2 82 1014.4 0.0000 0.0000
10:14 12.6 9.4 81 1014.4 0.0000 0.0000
10:23 13.1 10.1 82 1014.4 0.0000 0.0000
10:25 13.3 10.3 82 1014.1 0.0000 0.0000
10:46 14.1 10.3 78 1014.4 0.0000 0.0000
10:56 14.5 10.3 76 1014.3 0.0000 0.0000
11:06 14.9 10.7 76 1014.4 0.0000 0.0000
11:16 15.2 11 76 1014.3 0.0000 0.0000
11:36 15.9 11.5 75 1014.2 0.0000 0.0000
11:57 16.2 11.6 74 1014 0.0000 0.0000
12:07 16.8 12.1 74 1014.1 0.0000 0.0000
12:17 16.7 11.6 72 1014.1 0.0000 0.0000
12:27 17 11.9 72 1014.2 0.0000 0.0000
12:37 17.2 11.9 71 1014.2 0.0000 0.0000
12:47 17.5 12.2 71 1014.1 0.0000 0.0000
12:58 17.8 12.3 70 1013.9 0.0000 0.0000
13:17 18 12.5 70 1014 0.0000 0.0000
13:27 18.2 12 67 1013.9 0.0000 0.0000
13:38 18.3 12.1 67 1013.8 0.0000 0.0000
13:48 18.4 11.9 66 1013.3 0.0000 0.0000
13:57 18.6 11.9 65 1013.7 0.0000 0.0000
14:08 18.7 12.2 66 1013.7 0.0000 0.0000
14:18 18.9 12.2 65 1013.5 0.0000 0.0000
14:28 19 12.3 65 1013.2 0.0000 0.0000
14:38 19 12.5 66 1013.7 0.0000 0.0000
14:48 19 12.3 65 1013.9 0.0000 0.0000
14:58 18.9 12.4 66 1013.6 0.0000 0.0000
15:08 19 12.5 66 1013.7 0.0000 0.0000
15:19 19.1 12.6 66 1013.7 0.0000 0.0000
15:33 18.8 11.9 64 1013.3 0.0000 0.0000
15:43 18.7 11.8 64 1013.4 0.0000 0.0000
15:54 18.7 11.8 64 1013.3 0.0000 0.0000
16:04 18.8 11.9 64 1013 0.0000 0.0000
16:14 18.6 11.4 63 1013.2 0.0000 0.0000
16:23 18.6 11.9 65 1013.2 0.0000 0.0000
16:34 18.5 11.8 65 1013.4 0.0000 0.0000
16:44 18.4 11.9 66 1013.3 0.0000 0.0000
16:54 18.2 12 67 1013.1 0.0000 0.0000
17:04 18 12 68 1013 0.0000 0.0000
17:14 17.8 12 69 1012.7 0.0000 0.0000
17:24 17.6 12.1 70 1013.1 0.0000 0.0000
17:34 17.4 11.9 70 1013.1 0.0000 0.0000
17:45 17.1 11.8 71 1012.5 0.0000 0.0000
17:55 16.9 12 73 1012.5 0.0000 0.0000
18:04 16.6 12 74 1013 0.0000 0.0000
18:14 16.4 11.8 74 1012.7 0.0000 0.0000
18:25 16.2 11.8 75 1012.3 0.0000 0.0000
18:32 16 11.8 76 1012.9 0.0000 0.0000
18:45 15.7 11.5 76 1012.3 0.0000 0.0000
18:55 15.5 11.5 77 1012.9 0.0000 0.0000
19:05 15.2 11.2 77 1012.9 0.0000 0.0000
19:15 15 11.2 78 1012.9 0.0000 0.0000
19:25 14.7 11.1 79 1013 0.0000 0.0000
19:35 14.5 11.3 81 1012.7 0.0000 0.0000
19:38 14.3 11.1 81 1013 0.0000 0.0000
19:49 14.1 10.9 81 1013 0.0000 0.0000
19:59 14 10.8 81 1012.3 0.0000 0.0000
20:09 13.8 10.8 82 1012.9 0.0000 0.0000
20:19 13.5 10.7 83 1013.1 0.0000 0.0000
20:29 13.3 10.7 84 1013.1 0.0000 0.0000
20:39 12.9 10.4 85 1013.2 0.0000 0.0000
20:49 12.8 10.3 85 1012.5 0.0000 0.0000
21:00 12.8 10.3 85 1013.2 0.0000 0.0000
21:09 12.5 10 85 1012.6 0.0000 0.0000
21:19 12.3 10 86 1013.2 0.0000 0.0000
21:30 12.1 10 87 1013.2 0.0000 0.0000
21:40 11.9 9.8 87 1013.1 0.0000 0.0000
21:50 11.8 9.9 88 1013.1 0.0000 0.0000
21:59 11.7 9.8 88 1013 0.0000 0.0000
22:10 11.6 9.7 88 1012.5 0.0000 0.0000
22:20 11.6 9.9 89 1013.2 0.0000 0.0000
22:30 11.5 9.8 89 1013.2 0.0000 0.0000
22:40 11.4 9.7 89 1013.3 0.0000 0.0000
22:50 11.4 9.7 89 1012.6 0.0000 0.0000
23:00 11.3 9.4 88 1013.3 0.0000 0.0000
23:10 11.3 9.4 88 1013.2 0.0000 0.0000
23:21 11.5 9.6 88 1012.6 0.0000 0.0000
23:30 11.4 9.3 87 1013.2 0.0000 0.0000
23:40 11.4 9.3 87 1013.3 0.0000 0.0000
23:50 11.1 9 87 1013.1 0.0000 0.0000

TAGESSTATISTIK

2022-09-24
TEMPERATUR
MITTEL
12.2
MAXIMUM
19.1
15:19
MINIMUM
6.3
04:49
LUFTDRUCK
MITTEL
1014.1
MAXIMUM
1016.7
00:25
MINIMUM
1012.3
18:25
TAUPUNKT
MITTEL
9.0
MAXIMUM
12.6
15:19
MINIMUM
4.9
03:58
FEUCHTIGKEIT
MITTEL
81
MAXIMUM
92
06:04
MINIMUM
63
16:14
NIEDERSCHLAG
REGEN STUNDE
0.0
REGEN TAG
0.0
TEMPERATUR (°C)
MINIMUM
6.3
MAXIMUM
19.1
MITTEL
12.2
LUFTDRUCK (hpa)
MINIMUM
1012.3
MAXIMUM
1016.7
MITTEL
1014.1
MESSGERÄT